Saint Bonnet de Bellac- Haute Vienne - France
Donnes mto: mardi, 29/11/2011
Date Horaire Temp. E. Hum. E. P.atmo. Pluie Vent Direction Direction Ensoleilleme Solaire P. de rose Temp au vent Rafales
29/11/2011 00:00 3,3 C 93 % 1020,5 hPa 0,0 mm 2,9 km/h (1 Bft) S 180 0 min 0 W/m 2,3 C 3,3 C 3,6 km/h (1 Bft)
29/11/2011 00:05 3,2 C 93 % 1020,5 hPa 0,0 mm 2,2 km/h (1 Bft) S 180 0 min 0 W/m 2,2 C 3,2 C 3,6 km/h (1 Bft)
29/11/2011 00:10 3,2 C 93 % 1020,5 hPa 0,0 mm 0,0 km/h (0 Bft) S 180 0 min 0 W/m 2,2 C 3,2 C 3,2 km/h (1 Bft)
29/11/2011 00:15 3,1 C 93 % 1020,4 hPa 0,0 mm 0,0 km/h (0 Bft) S 180 0 min 0 W/m 2,1 C 3,1 C 0,0 km/h (0 Bft)
29/11/2011 00:20 2,9 C 93 % 1020,4 hPa 0,0 mm 0,0 km/h (0 Bft) S 180 0 min 0 W/m 1,9 C 2,9 C 0,0 km/h (0 Bft)
29/11/2011 00:25 2,8 C 92 % 1020,4 hPa 0,0 mm 0,0 km/h (0 Bft) S 180 0 min 0 W/m 1,6 C 2,8 C 0,0 km/h (0 Bft)
29/11/2011 00:30 2,7 C 92 % 1020,5 hPa 0,0 mm 0,0 km/h (0 Bft) S-SO 202 0 min 0 W/m 1,5 C 2,7 C 0,0 km/h (0 Bft)
29/11/2011 00:35 2,6 C 93 % 1020,5 hPa 0,0 mm 0,0 km/h (0 Bft) S-SO 202 0 min 0 W/m 1,6 C 2,6 C 0,0 km/h (0 Bft)
29/11/2011 00:40 2,5 C 93 % 1020,6 hPa 0,0 mm 0,0 km/h (0 Bft) O-SO 247 0 min 0 W/m 1,5 C 2,5 C 0,0 km/h (0 Bft)
29/11/2011 00:45 2,4 C 93 % 1020,6 hPa 0,0 mm 0,7 km/h (0 Bft) SO 225 0 min 0 W/m 1,4 C 2,4 C 3,6 km/h (1 Bft)
29/11/2011 00:50 2,4 C 93 % 1020,5 hPa 0,0 mm 0,7 km/h (0 Bft) S 180 0 min 0 W/m 1,4 C 2,4 C 0,7 km/h (0 Bft)
29/11/2011 00:55 2,4 C 93 % 1020,4 hPa 0,0 mm 0,0 km/h (0 Bft) S-SO 202 0 min 0 W/m 1,4 C 2,4 C 0,0 km/h (0 Bft)
29/11/2011 01:00 2,3 C 93 % 1020,4 hPa 0,0 mm 0,4 km/h (0 Bft) S-SO 202 0 min 0 W/m 1,3 C 2,3 C 4,0 km/h (1 Bft)
29/11/2011 01:05 2,3 C 93 % 1020,4 hPa 0,0 mm 0,7 km/h (0 Bft) SO 225 0 min 0 W/m 1,3 C 2,3 C 4,3 km/h (1 Bft)
29/11/2011 01:10 2,4 C 94 % 1020,4 hPa 0,0 mm 0,0 km/h (0 Bft) S-SO 202 0 min 0 W/m 1,5 C 2,4 C 0,0 km/h (0 Bft)
29/11/2011 01:15 2,4 C 94 % 1020,3 hPa 0,0 mm 0,4 km/h (0 Bft) SO 225 0 min 0 W/m 1,5 C 2,4 C 3,6 km/h (1 Bft)
29/11/2011 01:20 2,4 C 94 % 1020,2 hPa 0,0 mm 2,9 km/h (1 Bft) SO 225 0 min 0 W/m 1,5 C 2,4 C 6,1 km/h (2 Bft)
29/11/2011 01:25 2,4 C 94 % 1020,2 hPa 0,0 mm 0,0 km/h (0 Bft) S-SO 202 0 min 0 W/m 1,5 C 2,4 C 3,2 km/h (1 Bft)
29/11/2011 01:30 2,5 C 94 % 1020,2 hPa 0,0 mm 2,9 km/h (1 Bft) SO 225 0 min 0 W/m 1,6 C 2,5 C 4,0 km/h (1 Bft)
29/11/2011 01:35 2,5 C 94 % 1020,1 hPa 0,0 mm 1,8 km/h (1 Bft) S-SO 202 0 min 0 W/m 1,6 C 2,5 C 1,8 km/h (1 Bft)
29/11/2011 01:40 2,5 C 94 % 1020,1 hPa 0,0 mm 1,4 km/h (1 Bft) S-SO 202 0 min 0 W/m 1,6 C 2,5 C 3,6 km/h (1 Bft)
29/11/2011 01:45 2,4 C 94 % 1020,1 hPa 0,0 mm 3,6 km/h (1 Bft) S-SO 202 0 min 0 W/m 1,5 C 2,4 C 7,2 km/h (2 Bft)
29/11/2011 01:50 2,4 C 94 % 1020,0 hPa 0,0 mm 0,7 km/h (0 Bft) SO 225 0 min 0 W/m 1,5 C 2,4 C 0,7 km/h (0 Bft)
29/11/2011 01:55 2,4 C 94 % 1020,0 hPa 0,0 mm 0,0 km/h (0 Bft) S-SO 202 0 min 0 W/m 1,5 C 2,4 C 1,4 km/h (1 Bft)
29/11/2011 02:02 2,4 C 94 % 1020,0 hPa 0,0 mm 0,0 km/h (0 Bft) S 180 0 min 0 W/m 1,5 C 2,4 C 0,0 km/h (0 Bft)
29/11/2011 02:05 2,3 C 94 % 1020,0 hPa 0,0 mm 0,0 km/h (0 Bft) S-SO 202 0 min 0 W/m 1,4 C 2,3 C 0,0 km/h (0 Bft)
29/11/2011 02:10 2,3 C 94 % 1019,9 hPa 0,0 mm 0,0 km/h (0 Bft) S 180 0 min 0 W/m 1,4 C 2,3 C 3,2 km/h (1 Bft)
29/11/2011 02:15 2,3 C 94 % 1020,0 hPa 0,0 mm 2,2 km/h (1 Bft) S 180 0 min 0 W/m 1,4 C 2,3 C 4,3 km/h (1 Bft)
29/11/2011 02:20 2,4 C 94 % 1019,8 hPa 0,0 mm 5,0 km/h (1 Bft) S 180 0 min 0 W/m 1,5 C 1,1 C 5,0 km/h (1 Bft)
29/11/2011 02:25 2,6 C 94 % 1019,9 hPa 0,0 mm 3,6 km/h (1 Bft) S-SO 202 0 min 0 W/m 1,7 C 2,6 C 6,1 km/h (2 Bft)
29/11/2011 02:30 2,8 C 94 % 1019,8 hPa 0,0 mm 2,9 km/h (1 Bft) S-SO 202 0 min 0 W/m 1,9 C 2,8 C 3,6 km/h (1 Bft)
29/11/2011 02:35 3,0 C 94 % 1019,8 hPa 0,0 mm 0,0 km/h (0 Bft) S-SO 202 0 min 0 W/m 2,1 C 3,0 C 0,0 km/h (0 Bft)
29/11/2011 02:40 3,1 C 94 % 1019,8 hPa 0,0 mm 0,0 km/h (0 Bft) S-SO 202 0 min 0 W/m 2,2 C 3,1 C 0,0 km/h (0 Bft)
29/11/2011 02:45 3,3 C 94 % 1019,8 hPa 0,0 mm 1,1 km/h (1 Bft) S 180 0 min 0 W/m 2,4 C 3,3 C 3,6 km/h (1 Bft)
29/11/2011 02:50 3,4 C 94 % 1019,8 hPa 0,0 mm 0,4 km/h (0 Bft) S-SO 202 0 min 0 W/m 2,5 C 3,4 C 4,0 km/h (1 Bft)
29/11/2011 02:55 3,5 C 94 % 1019,8 hPa 0,0 mm 0,0 km/h (0 Bft) S-SO 202 0 min 0 W/m 2,6 C 3,5 C 0,0 km/h (0 Bft)
29/11/2011 03:00 3,7 C 95 % 1019,8 hPa 0,0 mm 0,4 km/h (0 Bft) S-SO 202 0 min 0 W/m 3,0 C 3,7 C 4,0 km/h (1 Bft)
29/11/2011 03:05 3,8 C 95 % 1019,8 hPa 0,0 mm 0,0 km/h (0 Bft) S-SO 202 0 min 0 W/m 3,1 C 3,8 C 0,0 km/h (0 Bft)
29/11/2011 03:10 3,8 C 95 % 1019,8 hPa 0,0 mm 2,2 km/h (1 Bft) S 180 0 min 0 W/m 3,1 C 3,8 C 2,2 km/h (1 Bft)
29/11/2011 03:15 4,0 C 95 % 1019,8 hPa 0,0 mm 2,5 km/h (1 Bft) S-SO 202 0 min 0 W/m 3,3 C 4,0 C 2,5 km/h (1 Bft)
29/11/2011 03:20 4,1 C 95 % 1019,7 hPa 0,0 mm 2,5 km/h (1 Bft) SO 225 0 min 0 W/m 3,4 C 4,1 C 4,3 km/h (1 Bft)
29/11/2011 03:25 4,2 C 95 % 1019,6 hPa 0,0 mm 1,4 km/h (1 Bft) S-SO 202 0 min 0 W/m 3,5 C 4,2 C 4,3 km/h (1 Bft)
29/11/2011 03:30 4,2 C 95 % 1019,5 hPa 0,0 mm 0,4 km/h (0 Bft) S-SE 157 0 min 0 W/m 3,5 C 4,2 C 2,9 km/h (1 Bft)
29/11/2011 03:35 4,3 C 95 % 1019,4 hPa 0,0 mm 3,2 km/h (1 Bft) S 180 0 min 0 W/m 3,6 C 4,3 C 6,5 km/h (2 Bft)
29/11/2011 03:40 4,3 C 95 % 1019,3 hPa 0,0 mm 2,2 km/h (1 Bft) S 180 0 min 0 W/m 3,6 C 4,3 C 3,6 km/h (1 Bft)
29/11/2011 03:45 4,4 C 95 % 1019,2 hPa 0,0 mm 1,8 km/h (1 Bft) S 180 0 min 0 W/m 3,7 C 4,4 C 3,2 km/h (1 Bft)
29/11/2011 03:50 4,4 C 95 % 1019,2 hPa 0,0 mm 0,0 km/h (0 Bft) S-SO 202 0 min 0 W/m 3,7 C 4,4 C 0,0 km/h (0 Bft)
29/11/2011 03:55 4,4 C 95 % 1019,2 hPa 0,0 mm 1,8 km/h (1 Bft) S 180 0 min 0 W/m 3,7 C 4,4 C 3,6 km/h (1 Bft)
29/11/2011 04:00 4,5 C 95 % 1019,0 hPa 0,0 mm 1,8 km/h (1 Bft) S 180 0 min 0 W/m 3,8 C 4,5 C 4,3 km/h (1 Bft)
29/11/2011 04:05 4,5 C 95 % 1019,0 hPa 0,0 mm 0,7 km/h (0 Bft) S 180 0 min 0 W/m 3,8 C 4,5 C 2,9 km/h (1 Bft)
29/11/2011 04:10 4,5 C 95 % 1019,1 hPa 0,0 mm 0,0 km/h (0 Bft) S-SO 202 0 min 0 W/m 3,8 C 4,5 C 2,9 km/h (1 Bft)
29/11/2011 04:15 4,5 C 95 % 1018,9 hPa 0,0 mm 3,2 km/h (1 Bft) S 180 0 min 0 W/m 3,8 C 4,5 C 4,3 km/h (1 Bft)
29/11/2011 04:20 4,6 C 95 % 1019,0 hPa 0,0 mm 1,1 km/h (1 Bft) S 180 0 min 0 W/m 3,9 C 4,6 C 1,1 km/h (1 Bft)
29/11/2011 04:25 4,6 C 95 % 1019,0 hPa 0,0 mm 0,0 km/h (0 Bft) S-SO 202 0 min 0 W/m 3,9 C 4,6 C 0,0 km/h (0 Bft)
29/11/2011 04:30 4,6 C 95 % 1019,2 hPa 0,0 mm 0,7 km/h (0 Bft) SO 225 0 min 0 W/m 3,9 C 4,6 C 4,3 km/h (1 Bft)
29/11/2011 04:35 4,5 C 95 % 1019,2 hPa 0,0 mm 2,2 km/h (1 Bft) S-SO 202 0 min 0 W/m 3,8 C 4,5 C 6,5 km/h (2 Bft)
29/11/2011 04:40 4,5 C 95 % 1019,1 hPa 0,0 mm 0,4 km/h (0 Bft) S-SO 202 0 min 0 W/m 3,8 C 4,5 C 3,6 km/h (1 Bft)
29/11/2011 04:45 4,5 C 95 % 1019,0 hPa 0,0 mm 0,0 km/h (0 Bft) S-SO 202 0 min 0 W/m 3,8 C 4,5 C 0,0 km/h (0 Bft)
29/11/2011 04:50 4,5 C 95 % 1019,1 hPa 0,0 mm 1,4 km/h (1 Bft) S-SO 202 0 min 0 W/m 3,8 C 4,5 C 4,3 km/h (1 Bft)
29/11/2011 04:55 4,6 C 95 % 1018,9 hPa 0,0 mm 0,4 km/h (0 Bft) S-SE 157 0 min 0 W/m 3,9 C 4,6 C 3,6 km/h (1 Bft)
29/11/2011 05:00 4,6 C 95 % 1018,8 hPa 0,1 mm 0,7 km/h (0 Bft) S 180 0 min 0 W/m 3,9 C 4,6 C 4,3 km/h (1 Bft)
29/11/2011 05:05 4,6 C 95 % 1018,8 hPa 0,0 mm 0,0 km/h (0 Bft) S 180 0 min 0 W/m 3,9 C 4,6 C 3,2 km/h (1 Bft)
29/11/2011 05:10 4,5 C 95 % 1018,9 hPa 0,0 mm 0,4 km/h (0 Bft) S-SE 157 0 min 0 W/m 3,8 C 4,5 C 3,2 km/h (1 Bft)
29/11/2011 05:15 4,5 C 95 % 1018,8 hPa 0,0 mm 0,0 km/h (0 Bft) SE 135 0 min 0 W/m 3,8 C 4,5 C 2,9 km/h (1 Bft)
29/11/2011 05:20 4,5 C 95 % 1018,6 hPa 0,0 mm 4,3 km/h (1 Bft) S 180 0 min 0 W/m 3,8 C 4,5 C 7,9 km/h (2 Bft)
29/11/2011 05:25 4,5 C 95 % 1018,7 hPa 0,0 mm 2,9 km/h (1 Bft) SO 225 0 min 0 W/m 3,8 C 4,5 C 5,0 km/h (1 Bft)
29/11/2011 05:30 4,6 C 95 % 1018,7 hPa 0,0 mm 0,0 km/h (0 Bft) SO 225 0 min 0 W/m 3,9 C 4,6 C 0,0 km/h (0 Bft)
29/11/2011 05:35 4,6 C 95 % 1018,6 hPa 0,0 mm 1,8 km/h (1 Bft) S-SO 202 0 min 0 W/m 3,9 C 4,6 C 3,6 km/h (1 Bft)
29/11/2011 05:40 4,6 C 95 % 1018,6 hPa 0,0 mm 1,1 km/h (1 Bft) S-SO 202 0 min 0 W/m 3,9 C 4,6 C 4,0 km/h (1 Bft)
29/11/2011 05:45 4,6 C 95 % 1018,6 hPa 0,0 mm 2,9 km/h (1 Bft) S-SO 202 0 min 0 W/m 3,9 C 4,6 C 6,1 km/h (2 Bft)
29/11/2011 05:50 4,6 C 95 % 1018,6 hPa 0,0 mm 0,0 km/h (0 Bft) SO 225 0 min 0 W/m 3,9 C 4,6 C 0,0 km/h (0 Bft)
29/11/2011 05:55 4,6 C 95 % 1018,6 hPa 0,0 mm 1,1 km/h (1 Bft) S-SO 202 0 min 0 W/m 3,9 C 4,6 C 4,0 km/h (1 Bft)
29/11/2011 06:00 4,6 C 95 % 1018,6 hPa 0,0 mm 0,0 km/h (0 Bft) S-SO 202 0 min 0 W/m 3,9 C 4,6 C 0,0 km/h (0 Bft)
29/11/2011 06:05 4,5 C 95 % 1018,6 hPa 0,0 mm 0,0 km/h (0 Bft) S-SO 202 0 min 0 W/m 3,8 C 4,5 C 0,0 km/h (0 Bft)
29/11/2011 06:10 4,4 C 95 % 1018,6 hPa 0,0 mm 0,0 km/h (0 Bft) S-SO 202 0 min 0 W/m 3,7 C 4,4 C 0,0 km/h (0 Bft)
29/11/2011 06:15 4,4 C 95 % 1018,4 hPa 0,0 mm 0,0 km/h (0 Bft) S-SO 202 0 min 0 W/m 3,7 C 4,4 C 0,0 km/h (0 Bft)
29/11/2011 06:20 4,3 C 95 % 1018,4 hPa 0,0 mm 0,4 km/h (0 Bft) SO 225 0 min 0 W/m 3,6 C 4,3 C 4,3 km/h (1 Bft)
29/11/2011 06:25 4,3 C 95 % 1018,4 hPa 0,0 mm 0,4 km/h (0 Bft) S 180 0 min 0 W/m 3,6 C 4,3 C 3,2 km/h (1 Bft)
29/11/2011 06:30 4,2 C 95 % 1018,4 hPa 0,0 mm 0,0 km/h (0 Bft) S-SO 202 0 min 0 W/m 3,5 C 4,2 C 0,0 km/h (0 Bft)
29/11/2011 06:35 4,1 C 95 % 1018,4 hPa 0,0 mm 0,4 km/h (0 Bft) S-SO 202 0 min 0 W/m 3,4 C 4,1 C 0,4 km/h (0 Bft)
29/11/2011 06:40 4,1 C 95 % 1018,3 hPa 0,0 mm 0,0 km/h (0 Bft) S-SO 202 0 min 0 W/m 3,4 C 4,1 C 0,0 km/h (0 Bft)
29/11/2011 06:45 4,1 C 95 % 1018,2 hPa 0,0 mm 0,0 km/h (0 Bft) S-SO 202 0 min 0 W/m 3,4 C 4,1 C 0,0 km/h (0 Bft)
29/11/2011 06:50 3,9 C 95 % 1018,2 hPa 0,0 mm 0,0 km/h (0 Bft) S-SO 202 0 min 0 W/m 3,2 C 3,9 C 0,0 km/h (0 Bft)
29/11/2011 06:55 3,8 C 95 % 1018,2 hPa 0,0 mm 0,0 km/h (0 Bft) S-SO 202 0 min 0 W/m 3,1 C 3,8 C 0,0 km/h (0 Bft)
29/11/2011 07:00 3,7 C 95 % 1018,2 hPa 0,0 mm 0,0 km/h (0 Bft) S 180 0 min 0 W/m 3,0 C 3,7 C 0,0 km/h (0 Bft)
29/11/2011 07:05 3,6 C 95 % 1018,2 hPa 0,0 mm 0,0 km/h (0 Bft) S-SO 202 0 min 0 W/m 2,9 C 3,6 C 0,0 km/h (0 Bft)
29/11/2011 07:10 3,6 C 95 % 1018,1 hPa 0,0 mm 0,0 km/h (0 Bft) SE 135 0 min 0 W/m 2,9 C 3,6 C 0,0 km/h (0 Bft)
29/11/2011 07:15 3,7 C 95 % 1018,1 hPa 0,0 mm 0,0 km/h (0 Bft) S 180 0 min 0 W/m 3,0 C 3,7 C 0,0 km/h (0 Bft)
29/11/2011 07:20 3,7 C 95 % 1018,1 hPa 0,0 mm 0,0 km/h (0 Bft) S-SO 202 0 min 0 W/m 3,0 C 3,7 C 1,4 km/h (1 Bft)
29/11/2011 07:25 3,8 C 95 % 1018,1 hPa 0,0 mm 0,0 km/h (0 Bft) SO 225 0 min 0 W/m 3,1 C 3,8 C 0,0 km/h (0 Bft)
29/11/2011 07:30 3,8 C 95 % 1018,0 hPa 0,0 mm 0,0 km/h (0 Bft) SO 225 0 min 0 W/m 3,1 C 3,8 C 0,0 km/h (0 Bft)
29/11/2011 07:35 3,8 C 95 % 1018,1 hPa 0,0 mm 0,4 km/h (0 Bft) S-SO 202 0 min 0 W/m 3,1 C 3,8 C 3,6 km/h (1 Bft)
29/11/2011 07:40 4,0 C 95 % 1018,0 hPa 0,0 mm 0,4 km/h (0 Bft) N 360 0 min 0 W/m 3,3 C 4,0 C 0,4 km/h (0 Bft)
29/11/2011 07:45 4,1 C 95 % 1018,0 hPa 0,0 mm 2,2 km/h (1 Bft) S-SO 202 0 min 0 W/m 3,4 C 4,1 C 2,2 km/h (1 Bft)
29/11/2011 07:50 4,3 C 95 % 1017,9 hPa 0,0 mm 3,2 km/h (1 Bft) E 90 0 min 0 W/m 3,6 C 4,3 C 9,0 km/h (2 Bft)
29/11/2011 07:55 4,5 C 95 % 1018,0 hPa 0,0 mm 1,8 km/h (1 Bft) S-SO 202 0 min 0 W/m 3,8 C 4,5 C 3,2 km/h (1 Bft)
29/11/2011 08:00 4,9 C 95 % 1018,0 hPa 0,0 mm 7,2 km/h (2 Bft) S 180 0 min 0 W/m 4,2 C 3,2 C 9,4 km/h (2 Bft)
29/11/2011 08:05 5,3 C 95 % 1018,0 hPa 0,0 mm 7,2 km/h (2 Bft) S 180 0 min 0 W/m 4,6 C 3,7 C 13,7 km/h (3 Bft)
29/11/2011 08:10 5,5 C 95 % 1018,0 hPa 0,0 mm 7,9 km/h (2 Bft) S-SE 157 0 min 0 W/m 4,8 C 3,7 C 16,9 km/h (3 Bft)
29/11/2011 08:15 5,8 C 95 % 1018,0 hPa 0,0 mm 6,5 km/h (2 Bft) SE 135 0 min 0 W/m 5,1 C 4,5 C 8,3 km/h (2 Bft)
29/11/2011 08:20 5,8 C 95 % 1018,0 hPa 0,0 mm 8,6 km/h (2 Bft) S-SO 202 0 min 0 W/m 5,1 C 3,9 C 10,1 km/h (2 Bft)
29/11/2011 08:25 5,9 C 95 % 1018,0 hPa 0,0 mm 7,2 km/h (2 Bft) S 180 0 min 0 W/m 5,2 C 4,4 C 13,3 km/h (3 Bft)
29/11/2011 08:30 6,0 C 95 % 1018,0 hPa 0,0 mm 7,2 km/h (2 Bft) N 360 0 min 0 W/m 5,3 C 4,5 C 7,2 km/h (2 Bft)
29/11/2011 08:35 6,1 C 95 % 1018,1 hPa 0,0 mm 9,7 km/h (2 Bft) S-SO 202 0 min 0 W/m 5,4 C 4,0 C 10,1 km/h (2 Bft)
29/11/2011 08:40 6,2 C 94 % 1018,0 hPa 0,0 mm 5,0 km/h (1 Bft) S 180 0 min 0 W/m 5,3 C 5,4 C 8,3 km/h (2 Bft)
29/11/2011 08:45 6,3 C 94 % 1018,1 hPa 0,0 mm 6,1 km/h (2 Bft) S-SO 202 0 min 0 W/m 5,4 C 5,2 C 10,1 km/h (2 Bft)
29/11/2011 08:50 6,4 C 94 % 1018,1 hPa 0,0 mm 5,4 km/h (2 Bft) S 180 0 min 0 W/m 5,5 C 5,5 C 9,7 km/h (2 Bft)
29/11/2011 08:55 6,7 C 94 % 1018,1 hPa 0,0 mm 6,1 km/h (2 Bft) S-SE 157 0 min 0 W/m 5,8 C 5,6 C 7,6 km/h (2 Bft)
29/11/2011 09:00 7,2 C 94 % 1018,1 hPa 0,0 mm 7,2 km/h (2 Bft) S-SO 202 0 min 0 W/m 6,3 C 5,9 C 18,4 km/h (3 Bft)
29/11/2011 09:05 7,6 C 93 % 1018,1 hPa 0,0 mm 6,5 km/h (2 Bft) S-SE 157 0 min 0 W/m 6,5 C 6,6 C 8,6 km/h (2 Bft)
29/11/2011 09:10 8,0 C 92 % 1018,2 hPa 0,0 mm 2,9 km/h (1 Bft) S-SO 202 0 min 0 W/m 6,8 C 8,0 C 4,3 km/h (1 Bft)
29/11/2011 09:15 8,3 C 91 % 1018,2 hPa 0,0 mm 7,9 km/h (2 Bft) S-SO 202 0 min 0 W/m 6,9 C 7,0 C 14,4 km/h (3 Bft)
29/11/2011 09:20 8,8 C 91 % 1018,2 hPa 0,0 mm 7,2 km/h (2 Bft) S-SO 202 0 min 0 W/m 7,4 C 7,8 C 7,6 km/h (2 Bft)
29/11/2011 09:25 8,9 C 89 % 1018,1 hPa 0,0 mm 5,0 km/h (1 Bft) SO 225 0 min 0 W/m 7,2 C 8,5 C 6,5 km/h (2 Bft)
29/11/2011 09:30 9,1 C 89 % 1018,2 hPa 0,0 mm 10,4 km/h (2 Bft) SE 135 0 min 0 W/m 7,4 C 7,5 C 13,0 km/h (3 Bft)
29/11/2011 09:35 9,3 C 89 % 1018,3 hPa 0,0 mm 4,3 km/h (1 Bft) S 180 0 min 0 W/m 7,6 C 9,3 C 7,2 km/h (2 Bft)
29/11/2011 09:40 9,3 C 87 % 1018,2 hPa 0,0 mm 7,2 km/h (2 Bft) S-SE 157 0 min 0 W/m 7,2 C 8,4 C 11,9 km/h (2 Bft)
29/11/2011 09:45 9,3 C 87 % 1018,3 hPa 0,0 mm 4,7 km/h (1 Bft) S 180 0 min 0 W/m 7,2 C 9,1 C 7,6 km/h (2 Bft)
29/11/2011 09:50 9,1 C 87 % 1018,3 hPa 0,0 mm 2,5 km/h (1 Bft) S-SO 202 0 min 0 W/m 7,1 C 9,1 C 3,2 km/h (1 Bft)
29/11/2011 09:55 9,1 C 87 % 1018,3 hPa 0,0 mm 8,3 km/h (2 Bft) S-SE 157 0 min 0 W/m 7,1 C 7,9 C 12,6 km/h (3 Bft)
29/11/2011 10:00 9,1 C 87 % 1018,3 hPa 0,0 mm 7,2 km/h (2 Bft) S-SO 202 0 min 0 W/m 7,1 C 8,1 C 11,5 km/h (2 Bft)
29/11/2011 10:05 9,1 C 87 % 1018,3 hPa 0,0 mm 6,1 km/h (2 Bft) S 180 0 min 0 W/m 7,1 C 8,4 C 11,2 km/h (2 Bft)
29/11/2011 10:10 9,1 C 86 % 1018,4 hPa 0,0 mm 9,7 km/h (2 Bft) S-SO 202 0 min 0 W/m 6,9 C 7,6 C 16,6 km/h (3 Bft)
29/11/2011 10:15 9,1 C 86 % 1018,4 hPa 0,0 mm 10,8 km/h (2 Bft) S 180 0 min 0 W/m 6,9 C 7,4 C 15,1 km/h (3 Bft)
29/11/2011 10:20 9,1 C 86 % 1018,5 hPa 0,0 mm 9,0 km/h (2 Bft) S-SO 202 0 min 0 W/m 6,9 C 7,7 C 9,7 km/h (2 Bft)
29/11/2011 10:25 9,1 C 86 % 1018,5 hPa 0,0 mm 7,2 km/h (2 Bft) S 180 0 min 0 W/m 6,9 C 8,1 C 13,0 km/h (3 Bft)
29/11/2011 10:30 9,2 C 86 % 1018,5 hPa 0,0 mm 6,8 km/h (2 Bft) S 180 0 min 0 W/m 7,0 C 8,3 C 6,8 km/h (2 Bft)
29/11/2011 10:35 9,3 C 86 % 1018,4 hPa 0,0 mm 6,1 km/h (2 Bft) S-SE 157 0 min 0 W/m 7,1 C 8,6 C 9,7 km/h (2 Bft)
29/11/2011 10:40 9,4 C 86 % 1018,4 hPa 0,0 mm 6,8 km/h (2 Bft) S 180 0 min 0 W/m 7,2 C 8,6 C 11,2 km/h (2 Bft)
29/11/2011 10:45 9,5 C 85 % 1018,5 hPa 0,0 mm 10,8 km/h (2 Bft) S 180 0 min 0 W/m 7,1 C 7,9 C 13,0 km/h (3 Bft)
29/11/2011 10:50 9,6 C 85 % 1018,5 hPa 0,0 mm 8,6 km/h (2 Bft) S-SO 202 0 min 0 W/m 7,2 C 8,4 C 13,3 km/h (3 Bft)
29/11/2011 10:55 9,7 C 85 % 1018,5 hPa 0,0 mm 5,0 km/h (1 Bft) S-SO 202 0 min 0 W/m 7,3 C 9,4 C 9,4 km/h (2 Bft)
29/11/2011 11:00 9,8 C 84 % 1018,5 hPa 0,0 mm 9,0 km/h (2 Bft) S-SO 202 0 min 0 W/m 7,2 C 8,6 C 11,9 km/h (2 Bft)
29/11/2011 11:05 10,1 C 84 % 1018,5 hPa 0,0 mm 4,7 km/h (1 Bft) S-SE 157 0 min 0 W/m 7,5 C 10,1 C 7,9 km/h (2 Bft)
29/11/2011 11:10 10,6 C 84 % 1018,6 hPa 0,0 mm 4,7 km/h (1 Bft) S-SO 202 0 min 0 W/m 8,0 C 10,6 C 10,4 km/h (2 Bft)
29/11/2011 11:15 10,8 C 83 % 1018,6 hPa 0,0 mm 10,1 km/h (2 Bft) SO 225 0 min 0 W/m 8,0 C 10,8 C 10,1 km/h (2 Bft)
29/11/2011 11:20 10,9 C 82 % 1018,6 hPa 0,0 mm 5,8 km/h (2 Bft) S-SO 202 0 min 0 W/m 7,9 C 10,9 C 9,0 km/h (2 Bft)
29/11/2011 11:25 11,1 C 83 % 1018,6 hPa 0,0 mm 5,0 km/h (1 Bft) S-SO 202 0 min 0 W/m 8,3 C 11,1 C 5,0 km/h (1 Bft)
29/11/2011 11:30 11,4 C 82 % 1018,6 hPa 0,0 mm 12,2 km/h (2 Bft) S 180 0 min 0 W/m 8,4 C 11,4 C 18,4 km/h (3 Bft)
29/11/2011 11:35 12,1 C 79 % 1018,7 hPa 0,0 mm 8,3 km/h (2 Bft) SO 225 0 min 0 W/m 8,6 C 12,1 C 13,3 km/h (3 Bft)
29/11/2011 11:40 12,3 C 78 % 1018,6 hPa 0,0 mm 6,5 km/h (2 Bft) S 180 0 min 0 W/m 8,6 C 12,3 C 7,6 km/h (2 Bft)
29/11/2011 11:45 12,3 C 75 % 1018,6 hPa 0,0 mm 9,4 km/h (2 Bft) S-SO 202 0 min 0 W/m 8,0 C 12,3 C 12,2 km/h (2 Bft)
29/11/2011 11:50 12,3 C 76 % 1018,6 hPa 0,0 mm 9,0 km/h (2 Bft) SO 225 0 min 0 W/m 8,2 C 12,3 C 14,0 km/h (3 Bft)
29/11/2011 11:55 12,3 C 75 % 1018,6 hPa 0,0 mm 11,2 km/h (2 Bft) S 180 0 min 0 W/m 8,0 C 12,3 C 13,7 km/h (3 Bft)
29/11/2011 12:00 12,1 C 76 % 1018,6 hPa 0,0 mm 4,3 km/h (1 Bft) S 180 0 min 0 W/m 8,0 C 12,1 C 8,3 km/h (2 Bft)
29/11/2011 12:05 12,2 C 75 % 1018,6 hPa 0,0 mm 8,6 km/h (2 Bft) S 180 0 min 0 W/m 7,9 C 12,2 C 8,6 km/h (2 Bft)
29/11/2011 12:10 12,1 C 76 % 1018,5 hPa 0,0 mm 7,9 km/h (2 Bft) S-SE 157 0 min 0 W/m 8,0 C 12,1 C 9,7 km/h (2 Bft)
29/11/2011 12:15 12,0 C 76 % 1018,5 hPa 0,0 mm 6,5 km/h (2 Bft) SO 225 0 min 0 W/m 7,9 C 12,0 C 10,8 km/h (2 Bft)
29/11/2011 12:20 12,0 C 75 % 1018,6 hPa 0,0 mm 7,6 km/h (2 Bft) SO 225 0 min 0 W/m 7,7 C 12,0 C 11,9 km/h (2 Bft)
29/11/2011 12:25 11,8 C 76 % 1018,6 hPa 0,0 mm 6,8 km/h (2 Bft) S-SO 202 0 min 0 W/m 7,7 C 11,8 C 10,4 km/h (2 Bft)
29/11/2011 12:30 11,8 C 76 % 1018,6 hPa 0,0 mm 6,5 km/h (2 Bft) S-SE 157 0 min 0 W/m 7,7 C 11,8 C 14,4 km/h (3 Bft)
29/11/2011 12:35 12,1 C 77 % 1018,5 hPa 0,0 mm 7,2 km/h (2 Bft) SO 225 0 min 0 W/m 8,2 C 12,1 C 10,8 km/h (2 Bft)
29/11/2011 12:40 12,4 C 75 % 1018,7 hPa 0,0 mm 9,7 km/h (2 Bft) S 180 0 min 0 W/m 8,1 C 12,4 C 15,5 km/h (3 Bft)
29/11/2011 12:45 12,7 C 73 % 1018,6 hPa 0,0 mm 7,2 km/h (2 Bft) SO 225 0 min 0 W/m 8,0 C 12,7 C 12,2 km/h (2 Bft)
29/11/2011 12:50 12,9 C 72 % 1018,6 hPa 0,0 mm 9,0 km/h (2 Bft) S-SO 202 0 min 0 W/m 8,0 C 12,9 C 10,4 km/h (2 Bft)
29/11/2011 12:55 12,9 C 71 % 1018,7 hPa 0,0 mm 10,4 km/h (2 Bft) S-SO 202 0 min 0 W/m 7,8 C 12,9 C 16,2 km/h (3 Bft)
29/11/2011 13:00 12,9 C 68 % 1018,5 hPa 0,0 mm 11,5 km/h (2 Bft) S-SO 202 0 min 0 W/m 7,1 C 12,9 C 14,4 km/h (3 Bft)
29/11/2011 13:05 13,2 C 69 % 1018,8 hPa 0,0 mm 9,4 km/h (2 Bft) SO 225 0 min 0 W/m 7,6 C 13,2 C 17,6 km/h (3 Bft)
29/11/2011 13:10 13,4 C 68 % 1018,7 hPa 0,0 mm 10,8 km/h (2 Bft) SO 225 0 min 0 W/m 7,6 C 13,4 C 15,8 km/h (3 Bft)
29/11/2011 13:15 13,6 C 69 % 1018,7 hPa 0,0 mm 8,6 km/h (2 Bft) S-SO 202 0 min 0 W/m 8,0 C 13,6 C 15,5 km/h (3 Bft)
29/11/2011 13:20 13,8 C 66 % 1018,7 hPa 0,0 mm 15,1 km/h (3 Bft) SO 225 0 min 0 W/m 7,6 C 13,8 C 21,2 km/h (4 Bft)
29/11/2011 13:25 14,1 C 66 % 1018,6 hPa 0,0 mm 10,1 km/h (2 Bft) S-SO 202 0 min 0 W/m 7,8 C 14,1 C 15,8 km/h (3 Bft)
29/11/2011 13:30 14,3 C 62 % 1018,5 hPa 0,0 mm 16,2 km/h (3 Bft) S-SO 202 0 min 0 W/m 7,1 C 14,3 C 20,5 km/h (4 Bft)
29/11/2011 13:35 14,4 C 60 % 1018,6 hPa 0,0 mm 19,8 km/h (3 Bft) SO 225 0 min 0 W/m 6,7 C 14,4 C 25,9 km/h (4 Bft)
29/11/2011 13:40 14,4 C 61 % 1018,7 hPa 0,0 mm 13,3 km/h (3 Bft) S-SO 202 0 min 0 W/m 7,0 C 14,4 C 20,9 km/h (4 Bft)
29/11/2011 13:45 14,4 C 61 % 1018,8 hPa 0,0 mm 10,4 km/h (2 Bft) S-SO 202 0 min 0 W/m 7,0 C 14,4 C 15,1 km/h (3 Bft)
29/11/2011 13:50 14,3 C 60 % 1018,8 hPa 0,0 mm 13,7 km/h (3 Bft) SO 225 0 min 0 W/m 6,6 C 14,3 C 21,6 km/h (4 Bft)
29/11/2011 13:55 14,2 C 61 % 1018,8 hPa 0,0 mm 11,9 km/h (2 Bft) S-SO 202 0 min 0 W/m 6,8 C 14,2 C 16,9 km/h (3 Bft)
29/11/2011 14:00 14,0 C 62 % 1018,7 hPa 0,0 mm 10,1 km/h (2 Bft) SO 225 0 min 0 W/m 6,8 C 14,0 C 13,3 km/h (3 Bft)
29/11/2011 14:05 13,9 C 63 % 1018,7 hPa 0,0 mm 10,8 km/h (2 Bft) SO 225 0 min 0 W/m 7,0 C 13,9 C 14,4 km/h (3 Bft)
29/11/2011 14:10 13,8 C 64 % 1018,7 hPa 0,0 mm 14,8 km/h (3 Bft) S-SO 202 0 min 0 W/m 7,1 C 13,8 C 23,4 km/h (4 Bft)
29/11/2011 14:15 13,5 C 64 % 1018,6 hPa 0,0 mm 14,4 km/h (3 Bft) O-SO 247 0 min 0 W/m 6,8 C 13,5 C 21,6 km/h (4 Bft)
29/11/2011 14:20 13,3 C 65 % 1018,7 hPa 0,0 mm 8,3 km/h (2 Bft) S 180 0 min 0 W/m 6,9 C 13,3 C 13,3 km/h (3 Bft)
29/11/2011 14:25 13,1 C 66 % 1018,6 hPa 0,0 mm 14,0 km/h (3 Bft) SO 225 0 min 0 W/m 6,9 C 13,1 C 18,0 km/h (3 Bft)
29/11/2011 14:30 13,0 C 68 % 1018,7 hPa 0,0 mm 17,3 km/h (3 Bft) S-SO 202 0 min 0 W/m 7,2 C 13,0 C 22,0 km/h (4 Bft)
29/11/2011 14:35 12,9 C 69 % 1018,6 hPa 0,0 mm 9,0 km/h (2 Bft) SO 225 0 min 0 W/m 7,4 C 12,9 C 10,8 km/h (2 Bft)
29/11/2011 14:40 12,8 C 70 % 1018,6 hPa 0,0 mm 6,5 km/h (2 Bft) S-SO 202 0 min 0 W/m 7,5 C 12,8 C 6,5 km/h (2 Bft)
29/11/2011 14:45 12,8 C 70 % 1018,5 hPa 0,0 mm 11,5 km/h (2 Bft) SE 135 0 min 0 W/m 7,5 C 12,8 C 16,2 km/h (3 Bft)
29/11/2011 14:50 12,8 C 70 % 1018,6 hPa 0,0 mm 10,4 km/h (2 Bft) S-SO 202 0 min 0 W/m 7,5 C 12,8 C 10,4 km/h (2 Bft)
29/11/2011 14:55 12,7 C 70 % 1018,5 hPa 0,0 mm 11,2 km/h (2 Bft) SO 225 0 min 0 W/m 7,4 C 12,7 C 18,0 km/h (3 Bft)
29/11/2011 15:00 12,6 C 71 % 1018,6 hPa 0,0 mm 6,8 km/h (2 Bft) SO 225 0 min 0 W/m 7,5 C 12,6 C 6,8 km/h (2 Bft)
29/11/2011 15:05 12,6 C 72 % 1018,6 hPa 0,0 mm 6,8 km/h (2 Bft) O-SO 247 0 min 0 W/m 7,7 C 12,6 C 8,6 km/h (2 Bft)
29/11/2011 15:10 12,5 C 72 % 1018,6 hPa 0,0 mm 11,9 km/h (2 Bft) S-SO 202 0 min 0 W/m 7,6 C 12,5 C 17,3 km/h (3 Bft)
29/11/2011 15:15 12,4 C 73 % 1018,6 hPa 0,0 mm 10,1 km/h (2 Bft) S-SO 202 0 min 0 W/m 7,7 C 12,4 C 15,8 km/h (3 Bft)
29/11/2011 15:20 12,3 C 73 % 1018,7 hPa 0,0 mm 10,8 km/h (2 Bft) S-SO 202 0 min 0 W/m 7,6 C 12,3 C 15,1 km/h (3 Bft)
29/11/2011 15:25 12,3 C 73 % 1018,8 hPa 0,0 mm 11,5 km/h (2 Bft) S-SO 202 0 min 0 W/m 7,6 C 12,3 C 16,6 km/h (3 Bft)
29/11/2011 15:30 12,3 C 73 % 1018,8 hPa 0,0 mm 7,2 km/h (2 Bft) O-SO 247 0 min 0 W/m 7,6 C 12,3 C 7,2 km/h (2 Bft)
29/11/2011 15:35 12,3 C 74 % 1018,9 hPa 0,0 mm 5,4 km/h (2 Bft) S-SO 202 0 min 0 W/m 7,8 C 12,3 C 7,2 km/h (2 Bft)
29/11/2011 15:40 12,2 C 74 % 1018,8 hPa 0,0 mm 5,4 km/h (2 Bft) O-SO 247 0 min 0 W/m 7,7 C 12,2 C 10,1 km/h (2 Bft)
29/11/2011 15:45 12,2 C 74 % 1018,8 hPa 0,0 mm 7,6 km/h (2 Bft) SO 225 0 min 0 W/m 7,7 C 12,2 C 11,5 km/h (2 Bft)
29/11/2011 15:50 12,1 C 75 % 1018,7 hPa 0,0 mm 6,1 km/h (2 Bft) S 180 0 min 0 W/m 7,8 C 12,1 C 10,8 km/h (2 Bft)
29/11/2011 15:55 12,1 C 75 % 1018,8 hPa 0,0 mm 3,2 km/h (1 Bft) SO 225 0 min 0 W/m 7,8 C 12,1 C 7,6 km/h (2 Bft)
29/11/2011 16:00 12,1 C 75 % 1018,8 hPa 0,0 mm 7,9 km/h (2 Bft) O-SO 247 0 min 0 W/m 7,8 C 12,1 C 9,7 km/h (2 Bft)
29/11/2011 16:05 12,1 C 76 % 1018,8 hPa 0,0 mm 6,8 km/h (2 Bft) S-SO 202 0 min 0 W/m 8,0 C 12,1 C 7,2 km/h (2 Bft)
29/11/2011 16:10 12,1 C 76 % 1018,8 hPa 0,0 mm 7,9 km/h (2 Bft) S-SO 202 0 min 0 W/m 8,0 C 12,1 C 12,6 km/h (3 Bft)
29/11/2011 16:15 12,1 C 75 % 1018,8 hPa 0,0 mm 7,9 km/h (2 Bft) N 360 0 min 0 W/m 7,8 C 12,1 C 7,9 km/h (2 Bft)
29/11/2011 16:20 12,1 C 75 % 1018,8 hPa 0,0 mm 5,8 km/h (2 Bft) SO 225 0 min 0 W/m 7,8 C 12,1 C 9,0 km/h (2 Bft)
29/11/2011 16:25 12,0 C 75 % 1018,8 hPa 0,0 mm 2,5 km/h (1 Bft) S-SO 202 0 min 0 W/m 7,7 C 12,0 C 4,3 km/h (1 Bft)
29/11/2011 16:30 11,9 C 75 % 1019,0 hPa 0,0 mm 5,0 km/h (1 Bft) SO 225 0 min 0 W/m 7,6 C 11,9 C 8,3 km/h (2 Bft)
29/11/2011 16:35 11,8 C 75 % 1019,0 hPa 0,0 mm 7,6 km/h (2 Bft) S-SO 202 0 min 0 W/m 7,5 C 11,8 C 13,0 km/h (3 Bft)
29/11/2011 16:40 11,8 C 74 % 1018,9 hPa 0,0 mm 9,0 km/h (2 Bft) O 270 0 min 0 W/m 7,3 C 11,8 C 9,0 km/h (2 Bft)
29/11/2011 16:45 11,8 C 74 % 1019,1 hPa 0,0 mm 10,1 km/h (2 Bft) S 180 0 min 0 W/m 7,3 C 11,8 C 14,4 km/h (3 Bft)
29/11/2011 16:50 11,7 C 74 % 1019,0 hPa 0,0 mm 4,0 km/h (1 Bft) SO 225 0 min 0 W/m 7,2 C 11,7 C 6,8 km/h (2 Bft)
29/11/2011 16:55 11,6 C 74 % 1019,1 hPa 0,0 mm 4,3 km/h (1 Bft) SO 225 0 min 0 W/m 7,1 C 11,6 C 6,5 km/h (2 Bft)
29/11/2011 17:00 11,6 C 74 % 1019,1 hPa 0,0 mm 4,3 km/h (1 Bft) O-SO 247 0 min 0 W/m 7,1 C 11,6 C 10,4 km/h (2 Bft)
29/11/2011 17:05 11,5 C 75 % 1019,1 hPa 0,0 mm 6,1 km/h (2 Bft) S-SO 202 0 min 0 W/m 7,2 C 11,5 C 9,0 km/h (2 Bft)
29/11/2011 17:10 11,4 C 75 % 1019,1 hPa 0,0 mm 3,2 km/h (1 Bft) S 180 0 min 0 W/m 7,1 C 11,4 C 7,2 km/h (2 Bft)
29/11/2011 17:15 11,4 C 76 % 1019,2 hPa 0,0 mm 6,5 km/h (2 Bft) S-SO 202 0 min 0 W/m 7,3 C 11,4 C 11,5 km/h (2 Bft)
29/11/2011 17:20 11,4 C 76 % 1019,4 hPa 0,0 mm 5,0 km/h (1 Bft) S-SO 202 0 min 0 W/m 7,3 C 11,4 C 5,0 km/h (1 Bft)
29/11/2011 17:25 11,3 C 76 % 1019,4 hPa 0,0 mm 7,6 km/h (2 Bft) SO 225 0 min 0 W/m 7,2 C 11,3 C 7,6 km/h (2 Bft)
29/11/2011 17:30 11,3 C 76 % 1019,3 hPa 0,0 mm 7,6 km/h (2 Bft) S 180 0 min 0 W/m 7,2 C 11,3 C 11,5 km/h (2 Bft)
29/11/2011 17:35 11,2 C 77 % 1019,3 hPa 0,0 mm 5,4 km/h (2 Bft) S-SE 157 0 min 0 W/m 7,3 C 11,2 C 5,4 km/h (2 Bft)
29/11/2011 17:40 11,1 C 77 % 1019,4 hPa 0,0 mm 5,8 km/h (2 Bft) S 180 0 min 0 W/m 7,2 C 11,1 C 10,4 km/h (2 Bft)
29/11/2011 17:45 11,1 C 77 % 1019,5 hPa 0,0 mm 5,8 km/h (2 Bft) SO 225 0 min 0 W/m 7,2 C 11,1 C 6,8 km/h (2 Bft)
29/11/2011 17:50 11,0 C 77 % 1019,6 hPa 0,0 mm 9,4 km/h (2 Bft) S-SO 202 0 min 0 W/m 7,1 C 11,0 C 12,6 km/h (3 Bft)
29/11/2011 17:55 10,9 C 77 % 1019,6 hPa 0,0 mm 10,1 km/h (2 Bft) S 180 0 min 0 W/m 7,0 C 10,9 C 10,1 km/h (2 Bft)
29/11/2011 18:00 11,0 C 77 % 1019,6 hPa 0,0 mm 7,9 km/h (2 Bft) S-SO 202 0 min 0 W/m 7,1 C 11,0 C 11,2 km/h (2 Bft)
29/11/2011 18:05 11,0 C 77 % 1019,6 hPa 0,0 mm 5,8 km/h (2 Bft) SO 225 0 min 0 W/m 7,1 C 11,0 C 9,0 km/h (2 Bft)
29/11/2011 18:10 10,9 C 77 % 1019,6 hPa 0,0 mm 6,5 km/h (2 Bft) S-SO 202 0 min 0 W/m 7,0 C 10,9 C 13,3 km/h (3 Bft)
29/11/2011 18:15 10,9 C 77 % 1019,6 hPa 0,0 mm 7,9 km/h (2 Bft) S-SO 202 0 min 0 W/m 7,0 C 10,9 C 8,3 km/h (2 Bft)
29/11/2011 18:20 10,9 C 77 % 1019,5 hPa 0,0 mm 5,4 km/h (2 Bft) S 180 0 min 0 W/m 7,0 C 10,9 C 9,7 km/h (2 Bft)
29/11/2011 18:25 10,9 C 77 % 1019,6 hPa 0,0 mm 6,8 km/h (2 Bft) S-SO 202 0 min 0 W/m 7,0 C 10,9 C 9,7 km/h (2 Bft)
29/11/2011 18:30 10,8 C 77 % 1019,6 hPa 0,0 mm 9,7 km/h (2 Bft) S-SO 202 0 min 0 W/m 6,9 C 10,8 C 16,6 km/h (3 Bft)
29/11/2011 18:35 10,8 C 77 % 1019,6 hPa 0,0 mm 7,9 km/h (2 Bft) S-SO 202 0 min 0 W/m 6,9 C 10,8 C 13,0 km/h (3 Bft)
29/11/2011 18:40 10,8 C 77 % 1019,7 hPa 0,0 mm 3,2 km/h (1 Bft) SO 225 0 min 0 W/m 6,9 C 10,8 C 6,5 km/h (2 Bft)
29/11/2011 18:45 10,8 C 77 % 1019,8 hPa 0,0 mm 5,4 km/h (2 Bft) S-SO 202 0 min 0 W/m 6,9 C 10,8 C 13,0 km/h (3 Bft)
29/11/2011 18:50 10,8 C 77 % 1019,8 hPa 0,0 mm 7,2 km/h (2 Bft) SO 225 0 min 0 W/m 6,9 C 10,8 C 12,2 km/h (2 Bft)
29/11/2011 18:55 10,8 C 77 % 1020,0 hPa 0,0 mm 5,8 km/h (2 Bft) S-SO 202 0 min 0 W/m 6,9 C 10,8 C 8,3 km/h (2 Bft)
29/11/2011 19:00 10,8 C 77 % 1020,0 hPa 0,0 mm 4,3 km/h (1 Bft) SO 225 0 min 0 W/m 6,9 C 10,8 C 4,3 km/h (1 Bft)
29/11/2011 19:05 10,8 C 77 % 1020,0 hPa 0,0 mm 6,5 km/h (2 Bft) S-SO 202 0 min 0 W/m 6,9 C 10,8 C 12,6 km/h (3 Bft)
29/11/2011 19:10 10,8 C 77 % 1020,1 hPa 0,0 mm 5,4 km/h (2 Bft) S-SO 202 0 min 0 W/m 6,9 C 10,8 C 7,6 km/h (2 Bft)
29/11/2011 19:15 10,8 C 77 % 1020,0 hPa 0,0 mm 7,9 km/h (2 Bft) S-SO 202 0 min 0 W/m 6,9 C 10,8 C 8,3 km/h (2 Bft)
29/11/2011 19:20 10,8 C 77 % 1020,0 hPa 0,0 mm 7,2 km/h (2 Bft) O-SO 247 0 min 0 W/m 6,9 C 10,8 C 11,2 km/h (2 Bft)
29/11/2011 19:25 10,8 C 77 % 1020,1 hPa 0,0 mm 7,6 km/h (2 Bft) SO 225 0 min 0 W/m 6,9 C 10,8 C 11,5 km/h (2 Bft)
29/11/2011 19:30 10,8 C 77 % 1020,1 hPa 0,0 mm 5,8 km/h (2 Bft) S-SO 202 0 min 0 W/m 6,9 C 10,8 C 7,9 km/h (2 Bft)
29/11/2011 19:35 10,8 C 77 % 1020,2 hPa 0,0 mm 7,2 km/h (2 Bft) SO 225 0 min 0 W/m 6,9 C 10,8 C 7,6 km/h (2 Bft)
29/11/2011 19:40 10,8 C 77 % 1020,2 hPa 0,0 mm 6,5 km/h (2 Bft) S-SO 202 0 min 0 W/m 6,9 C 10,8 C 11,9 km/h (2 Bft)
29/11/2011 19:45 10,8 C 77 % 1020,3 hPa 0,0 mm 8,3 km/h (2 Bft) O-SO 247 0 min 0 W/m 6,9 C 10,8 C 10,8 km/h (2 Bft)
29/11/2011 19:50 10,9 C 77 % 1020,3 hPa 0,0 mm 7,6 km/h (2 Bft) O-SO 247 0 min 0 W/m 7,0 C 10,9 C 11,9 km/h (2 Bft)
_ Min-Heure 02:15 13:50 07:50 - 07:30 - - - - 01:05 02:20 07:30
Minimum _ 2,3 C 60 % 1017,9 hPa - 0,0 km/h (0 Bft) - - - - 1,3 C 1,1 C 0,0 km/h (0 Bft)
_ Max-Heure 13:45 08:35 00:45 05:00 13:35 - - 19:50 19:50 11:40 13:45 13:35
Maximum _ 14,4 C 95 % 1020,6 hPa 0,1 mm 19,8 km/h
SO (3 Bft)
- - 0 min 0 W/m 8,6 C 14,4 C 25,9 km/h
SO (4 Bft)
Moyenne _ 8,1 C 85 % 1019,0 hPa #0,1 mm 5,1 km/h (1 Bft) S-SO - #0 min. 0 W/m 5,5 C 7,9 C 7,9 km/h (2 Bft)
Saint Bonnet de Bellac- Haute Vienne - France